sensor_id;sensor_type;location;lat;lon;timestamp;P1;durP1;ratioP1;P2;durP2;ratioP2
11247;SDS011;5681;53.316;13.950;2023-07-31T00:00:32;7.53;;;2.50;;
11247;SDS011;5681;53.316;13.950;2023-07-31T00:02:59;5.50;;;2.10;;
11247;SDS011;5681;53.316;13.950;2023-07-31T00:05:25;5.20;;;2.22;;
11247;SDS011;5681;53.316;13.950;2023-07-31T00:07:51;4.40;;;2.00;;
11247;SDS011;5681;53.316;13.950;2023-07-31T00:10:18;5.38;;;2.25;;
11247;SDS011;5681;53.316;13.950;2023-07-31T00:12:46;5.20;;;1.92;;
11247;SDS011;5681;53.316;13.950;2023-07-31T00:15:13;4.43;;;1.65;;
11247;SDS011;5681;53.316;13.950;2023-07-31T00:17:39;4.95;;;2.40;;
11247;SDS011;5681;53.316;13.950;2023-07-31T00:20:06;3.63;;;1.80;;
11247;SDS011;5681;53.316;13.950;2023-07-31T00:22:33;5.78;;;2.00;;
11247;SDS011;5681;53.316;13.950;2023-07-31T00:25:01;5.80;;;2.28;;
11247;SDS011;5681;53.316;13.950;2023-07-31T00:27:27;4.82;;;2.00;;
11247;SDS011;5681;53.316;13.950;2023-07-31T00:29:55;6.45;;;2.00;;
11247;SDS011;5681;53.316;13.950;2023-07-31T00:32:21;5.28;;;2.05;;
11247;SDS011;5681;53.316;13.950;2023-07-31T00:34:48;4.40;;;1.85;;
11247;SDS011;5681;53.316;13.950;2023-07-31T00:37:14;4.93;;;1.80;;
11247;SDS011;5681;53.316;13.950;2023-07-31T00:39:41;7.72;;;1.90;;
11247;SDS011;5681;53.316;13.950;2023-07-31T00:42:07;3.78;;;1.70;;
11247;SDS011;5681;53.316;13.950;2023-07-31T00:44:33;6.32;;;2.08;;
11247;SDS011;5681;53.316;13.950;2023-07-31T00:47:01;5.70;;;2.08;;
11247;SDS011;5681;53.316;13.950;2023-07-31T00:49:27;6.32;;;1.90;;
11247;SDS011;5681;53.316;13.950;2023-07-31T00:51:54;5.97;;;2.08;;
11247;SDS011;5681;53.316;13.950;2023-07-31T00:54:22;2.95;;;1.92;;
11247;SDS011;5681;53.316;13.950;2023-07-31T00:56:48;5.22;;;1.90;;
11247;SDS011;5681;53.316;13.950;2023-07-31T00:59:16;4.03;;;1.73;;
11247;SDS011;5681;53.316;13.950;2023-07-31T01:01:43;7.90;;;1.85;;
11247;SDS011;5681;53.316;13.950;2023-07-31T01:04:12;4.78;;;2.00;;
11247;SDS011;5681;53.316;13.950;2023-07-31T01:06:40;4.88;;;1.70;;
11247;SDS011;5681;53.316;13.950;2023-07-31T01:09:11;4.30;;;1.90;;
11247;SDS011;5681;53.316;13.950;2023-07-31T01:11:52;8.07;;;1.77;;
11247;SDS011;5681;53.316;13.950;2023-07-31T01:14:19;6.25;;;1.70;;
11247;SDS011;5681;53.316;13.950;2023-07-31T01:16:45;4.28;;;2.00;;
11247;SDS011;5681;53.316;13.950;2023-07-31T01:19:13;4.18;;;1.80;;
11247;SDS011;5681;53.316;13.950;2023-07-31T01:21:45;4.68;;;1.92;;
11247;SDS011;5681;53.316;13.950;2023-07-31T01:24:41;6.88;;;2.20;;
11247;SDS011;5681;53.316;13.950;2023-07-31T01:27:16;6.05;;;2.05;;
11247;SDS011;5681;53.316;13.950;2023-07-31T01:29:46;5.63;;;2.10;;
11247;SDS011;5681;53.316;13.950;2023-07-31T01:32:14;5.60;;;2.13;;
11247;SDS011;5681;53.316;13.950;2023-07-31T01:34:40;5.57;;;1.90;;
11247;SDS011;5681;53.316;13.950;2023-07-31T01:37:07;6.20;;;1.92;;
11247;SDS011;5681;53.316;13.950;2023-07-31T01:39:33;7.35;;;2.13;;
11247;SDS011;5681;53.316;13.950;2023-07-31T01:42:00;7.97;;;2.42;;
11247;SDS011;5681;53.316;13.950;2023-07-31T01:44:27;5.20;;;2.00;;
11247;SDS011;5681;53.316;13.950;2023-07-31T01:46:54;5.43;;;1.95;;
11247;SDS011;5681;53.316;13.950;2023-07-31T01:49:20;4.03;;;2.20;;
11247;SDS011;5681;53.316;13.950;2023-07-31T01:51:47;4.07;;;2.08;;
11247;SDS011;5681;53.316;13.950;2023-07-31T01:54:13;5.97;;;2.05;;
11247;SDS011;5681;53.316;13.950;2023-07-31T01:56:39;7.00;;;2.33;;
11247;SDS011;5681;53.316;13.950;2023-07-31T01:59:06;3.30;;;2.00;;
11247;SDS011;5681;53.316;13.950;2023-07-31T02:01:33;5.05;;;2.15;;
11247;SDS011;5681;53.316;13.950;2023-07-31T02:04:00;6.88;;;2.13;;
11247;SDS011;5681;53.316;13.950;2023-07-31T02:06:26;6.10;;;2.45;;
11247;SDS011;5681;53.316;13.950;2023-07-31T02:08:52;6.72;;;1.92;;
11247;SDS011;5681;53.316;13.950;2023-07-31T02:11:19;4.53;;;2.20;;
11247;SDS011;5681;53.316;13.950;2023-07-31T02:13:45;4.13;;;2.40;;
11247;SDS011;5681;53.316;13.950;2023-07-31T02:16:11;6.93;;;2.38;;
11247;SDS011;5681;53.316;13.950;2023-07-31T02:18:39;5.68;;;2.30;;
11247;SDS011;5681;53.316;13.950;2023-07-31T02:21:05;7.43;;;2.15;;
11247;SDS011;5681;53.316;13.950;2023-07-31T02:23:32;4.40;;;2.13;;
11247;SDS011;5681;53.316;13.950;2023-07-31T02:25:58;6.20;;;2.25;;
11247;SDS011;5681;53.316;13.950;2023-07-31T02:28:24;4.30;;;2.40;;
11247;SDS011;5681;53.316;13.950;2023-07-31T02:30:50;9.05;;;2.65;;
11247;SDS011;5681;53.316;13.950;2023-07-31T02:33:17;8.98;;;2.47;;
11247;SDS011;5681;53.316;13.950;2023-07-31T02:35:45;4.30;;;2.30;;
11247;SDS011;5681;53.316;13.950;2023-07-31T02:38:11;7.32;;;2.22;;
11247;SDS011;5681;53.316;13.950;2023-07-31T02:40:38;6.28;;;2.25;;
11247;SDS011;5681;53.316;13.950;2023-07-31T02:43:05;4.90;;;2.33;;
11247;SDS011;5681;53.316;13.950;2023-07-31T02:45:31;5.72;;;2.30;;
11247;SDS011;5681;53.316;13.950;2023-07-31T02:47:57;4.50;;;2.35;;
11247;SDS011;5681;53.316;13.950;2023-07-31T02:50:24;3.90;;;2.10;;
11247;SDS011;5681;53.316;13.950;2023-07-31T02:52:51;4.43;;;2.20;;
11247;SDS011;5681;53.316;13.950;2023-07-31T02:55:18;4.90;;;2.10;;
11247;SDS011;5681;53.316;13.950;2023-07-31T02:57:44;6.13;;;2.10;;
11247;SDS011;5681;53.316;13.950;2023-07-31T03:00:11;4.60;;;1.90;;
11247;SDS011;5681;53.316;13.950;2023-07-31T03:02:37;6.60;;;2.10;;
11247;SDS011;5681;53.316;13.950;2023-07-31T03:05:03;6.80;;;2.28;;
11247;SDS011;5681;53.316;13.950;2023-07-31T03:07:30;7.47;;;2.33;;
11247;SDS011;5681;53.316;13.950;2023-07-31T03:09:58;5.95;;;2.33;;
11247;SDS011;5681;53.316;13.950;2023-07-31T03:12:24;3.05;;;2.00;;
11247;SDS011;5681;53.316;13.950;2023-07-31T03:14:50;4.97;;;1.90;;
11247;SDS011;5681;53.316;13.950;2023-07-31T03:17:17;5.53;;;2.05;;
11247;SDS011;5681;53.316;13.950;2023-07-31T03:19:43;7.28;;;2.50;;
11247;SDS011;5681;53.316;13.950;2023-07-31T03:22:09;4.93;;;2.20;;
11247;SDS011;5681;53.316;13.950;2023-07-31T03:24:36;6.35;;;1.95;;
11247;SDS011;5681;53.316;13.950;2023-07-31T03:27:04;4.65;;;2.13;;
11247;SDS011;5681;53.316;13.950;2023-07-31T03:29:31;3.97;;;1.88;;
11247;SDS011;5681;53.316;13.950;2023-07-31T03:31:57;8.32;;;2.33;;
11247;SDS011;5681;53.316;13.950;2023-07-31T03:34:24;5.65;;;2.42;;
11247;SDS011;5681;53.316;13.950;2023-07-31T03:36:50;5.80;;;2.20;;
11247;SDS011;5681;53.316;13.950;2023-07-31T03:39:16;5.50;;;2.22;;
11247;SDS011;5681;53.316;13.950;2023-07-31T03:41:43;7.30;;;2.00;;
11247;SDS011;5681;53.316;13.950;2023-07-31T03:44:10;7.32;;;1.88;;
11247;SDS011;5681;53.316;13.950;2023-07-31T03:46:37;5.13;;;2.38;;
11247;SDS011;5681;53.316;13.950;2023-07-31T03:49:03;8.98;;;2.17;;
11247;SDS011;5681;53.316;13.950;2023-07-31T03:51:29;4.97;;;1.98;;
11247;SDS011;5681;53.316;13.950;2023-07-31T03:53:56;5.20;;;2.08;;
11247;SDS011;5681;53.316;13.950;2023-07-31T03:56:22;4.25;;;1.88;;
11247;SDS011;5681;53.316;13.950;2023-07-31T03:58:48;5.43;;;2.20;;
11247;SDS011;5681;53.316;13.950;2023-07-31T04:01:16;5.32;;;2.20;;
11247;SDS011;5681;53.316;13.950;2023-07-31T04:03:44;5.50;;;1.98;;
11247;SDS011;5681;53.316;13.950;2023-07-31T04:06:10;4.57;;;2.15;;
11247;SDS011;5681;53.316;13.950;2023-07-31T04:08:37;6.85;;;2.30;;
11247;SDS011;5681;53.316;13.950;2023-07-31T04:11:03;8.27;;;2.20;;
11247;SDS011;5681;53.316;13.950;2023-07-31T04:13:29;6.70;;;2.55;;
11247;SDS011;5681;53.316;13.950;2023-07-31T04:15:56;4.43;;;2.20;;
11247;SDS011;5681;53.316;13.950;2023-07-31T04:18:24;7.47;;;2.20;;
11247;SDS011;5681;53.316;13.950;2023-07-31T04:20:50;9.13;;;2.45;;
11247;SDS011;5681;53.316;13.950;2023-07-31T04:23:17;8.73;;;2.47;;
11247;SDS011;5681;53.316;13.950;2023-07-31T04:25:43;9.07;;;2.50;;
11247;SDS011;5681;53.316;13.950;2023-07-31T04:28:09;7.03;;;2.50;;
11247;SDS011;5681;53.316;13.950;2023-07-31T04:30:36;7.18;;;2.40;;
11247;SDS011;5681;53.316;13.950;2023-07-31T04:33:02;7.43;;;2.40;;
11247;SDS011;5681;53.316;13.950;2023-07-31T04:35:30;8.95;;;2.28;;
11247;SDS011;5681;53.316;13.950;2023-07-31T04:37:56;5.47;;;2.35;;
11247;SDS011;5681;53.316;13.950;2023-07-31T04:40:22;6.18;;;2.22;;
11247;SDS011;5681;53.316;13.950;2023-07-31T04:42:49;5.50;;;1.95;;
11247;SDS011;5681;53.316;13.950;2023-07-31T04:45:15;5.07;;;2.20;;
11247;SDS011;5681;53.316;13.950;2023-07-31T04:47:42;5.47;;;2.30;;
11247;SDS011;5681;53.316;13.950;2023-07-31T04:50:08;7.38;;;2.40;;
11247;SDS011;5681;53.316;13.950;2023-07-31T04:52:36;5.95;;;2.35;;
11247;SDS011;5681;53.316;13.950;2023-07-31T04:55:03;5.00;;;2.33;;
11247;SDS011;5681;53.316;13.950;2023-07-31T04:57:30;8.07;;;2.28;;
11247;SDS011;5681;53.316;13.950;2023-07-31T04:59:56;6.95;;;2.30;;
11247;SDS011;5681;53.316;13.950;2023-07-31T05:02:22;8.23;;;2.72;;
11247;SDS011;5681;53.316;13.950;2023-07-31T05:04:49;4.47;;;2.00;;
11247;SDS011;5681;53.316;13.950;2023-07-31T05:07:16;5.80;;;2.33;;
11247;SDS011;5681;53.316;13.950;2023-07-31T05:09:44;5.35;;;2.40;;
11247;SDS011;5681;53.316;13.950;2023-07-31T05:12:10;7.00;;;2.30;;
11247;SDS011;5681;53.316;13.950;2023-07-31T05:14:36;4.32;;;2.15;;
11247;SDS011;5681;53.316;13.950;2023-07-31T05:17:03;6.15;;;2.35;;
11247;SDS011;5681;53.316;13.950;2023-07-31T05:19:30;5.53;;;2.20;;
11247;SDS011;5681;53.316;13.950;2023-07-31T05:21:56;4.30;;;2.08;;
11247;SDS011;5681;53.316;13.950;2023-07-31T05:24:22;5.10;;;2.30;;
11247;SDS011;5681;53.316;13.950;2023-07-31T05:26:50;4.90;;;2.22;;
11247;SDS011;5681;53.316;13.950;2023-07-31T05:29:16;5.20;;;2.40;;
11247;SDS011;5681;53.316;13.950;2023-07-31T05:31:43;6.57;;;2.17;;
11247;SDS011;5681;53.316;13.950;2023-07-31T05:34:09;5.25;;;2.40;;
11247;SDS011;5681;53.316;13.950;2023-07-31T05:36:35;4.57;;;2.25;;
11247;SDS011;5681;53.316;13.950;2023-07-31T05:39:02;7.20;;;2.55;;
11247;SDS011;5681;53.316;13.950;2023-07-31T05:41:33;5.75;;;2.75;;
11247;SDS011;5681;53.316;13.950;2023-07-31T05:44:01;12.55;;;2.92;;
11247;SDS011;5681;53.316;13.950;2023-07-31T05:46:28;6.10;;;2.58;;
11247;SDS011;5681;53.316;13.950;2023-07-31T05:48:56;4.93;;;2.45;;
11247;SDS011;5681;53.316;13.950;2023-07-31T05:51:22;5.50;;;2.28;;
11247;SDS011;5681;53.316;13.950;2023-07-31T05:53:48;5.80;;;2.58;;
11247;SDS011;5681;53.316;13.950;2023-07-31T05:56:15;6.22;;;2.50;;
11247;SDS011;5681;53.316;13.950;2023-07-31T05:58:41;7.13;;;2.60;;
11247;SDS011;5681;53.316;13.950;2023-07-31T06:01:09;7.68;;;2.55;;
11247;SDS011;5681;53.316;13.950;2023-07-31T06:03:35;4.65;;;2.13;;
11247;SDS011;5681;53.316;13.950;2023-07-31T06:06:01;6.53;;;2.00;;
11247;SDS011;5681;53.316;13.950;2023-07-31T06:08:28;4.65;;;2.03;;
11247;SDS011;5681;53.316;13.950;2023-07-31T06:10:54;3.63;;;2.08;;
11247;SDS011;5681;53.316;13.950;2023-07-31T06:13:20;10.10;;;2.55;;
11247;SDS011;5681;53.316;13.950;2023-07-31T06:15:47;5.10;;;2.17;;
11247;SDS011;5681;53.316;13.950;2023-07-31T06:18:14;6.30;;;2.20;;
11247;SDS011;5681;53.316;13.950;2023-07-31T06:20:41;6.57;;;2.70;;
11247;SDS011;5681;53.316;13.950;2023-07-31T06:23:07;5.03;;;2.20;;
11247;SDS011;5681;53.316;13.950;2023-07-31T06:25:33;9.32;;;2.35;;
11247;SDS011;5681;53.316;13.950;2023-07-31T06:28:00;4.25;;;1.98;;
11247;SDS011;5681;53.316;13.950;2023-07-31T06:30:26;5.43;;;2.05;;
11247;SDS011;5681;53.316;13.950;2023-07-31T06:32:52;4.07;;;1.73;;
11247;SDS011;5681;53.316;13.950;2023-07-31T06:35:20;5.45;;;2.17;;
11247;SDS011;5681;53.316;13.950;2023-07-31T06:37:46;4.65;;;2.00;;
11247;SDS011;5681;53.316;13.950;2023-07-31T06:40:13;4.50;;;1.88;;
11247;SDS011;5681;53.316;13.950;2023-07-31T06:42:39;5.10;;;2.17;;
11247;SDS011;5681;53.316;13.950;2023-07-31T06:45:06;4.65;;;1.70;;
11247;SDS011;5681;53.316;13.950;2023-07-31T06:47:33;4.13;;;1.80;;
11247;SDS011;5681;53.316;13.950;2023-07-31T06:49:59;5.15;;;1.83;;
11247;SDS011;5681;53.316;13.950;2023-07-31T06:52:27;4.80;;;1.90;;
11247;SDS011;5681;53.316;13.950;2023-07-31T06:55:00;3.33;;;1.70;;
11247;SDS011;5681;53.316;13.950;2023-07-31T06:57:27;4.53;;;1.60;;
11247;SDS011;5681;53.316;13.950;2023-07-31T06:59:54;4.05;;;1.67;;
11247;SDS011;5681;53.316;13.950;2023-07-31T07:02:20;5.55;;;1.95;;
11247;SDS011;5681;53.316;13.950;2023-07-31T07:04:46;2.97;;;1.67;;
11247;SDS011;5681;53.316;13.950;2023-07-31T07:07:13;5.20;;;1.95;;
11247;SDS011;5681;53.316;13.950;2023-07-31T07:09:40;5.68;;;1.80;;
11247;SDS011;5681;53.316;13.950;2023-07-31T07:12:07;2.83;;;1.80;;
11247;SDS011;5681;53.316;13.950;2023-07-31T07:14:34;4.40;;;1.70;;
11247;SDS011;5681;53.316;13.950;2023-07-31T07:17:00;3.83;;;1.88;;
11247;SDS011;5681;53.316;13.950;2023-07-31T07:19:27;5.78;;;1.95;;
11247;SDS011;5681;53.316;13.950;2023-07-31T07:21:53;3.97;;;1.55;;
11247;SDS011;5681;53.316;13.950;2023-07-31T07:24:19;4.32;;;2.17;;
11247;SDS011;5681;53.316;13.950;2023-07-31T07:26:47;4.80;;;1.77;;
11247;SDS011;5681;53.316;13.950;2023-07-31T07:29:13;4.38;;;1.90;;
11247;SDS011;5681;53.316;13.950;2023-07-31T07:31:40;3.50;;;2.00;;
11247;SDS011;5681;53.316;13.950;2023-07-31T07:34:06;4.47;;;2.20;;
11247;SDS011;5681;53.316;13.950;2023-07-31T07:36:32;2.67;;;1.85;;
11247;SDS011;5681;53.316;13.950;2023-07-31T07:38:59;4.05;;;1.92;;
11247;SDS011;5681;53.316;13.950;2023-07-31T07:41:25;8.07;;;2.10;;
11247;SDS011;5681;53.316;13.950;2023-07-31T07:43:53;5.38;;;2.15;;
11247;SDS011;5681;53.316;13.950;2023-07-31T07:46:19;5.78;;;1.70;;
11247;SDS011;5681;53.316;13.950;2023-07-31T07:48:45;4.65;;;2.25;;
11247;SDS011;5681;53.316;13.950;2023-07-31T07:51:12;5.68;;;2.10;;
11247;SDS011;5681;53.316;13.950;2023-07-31T07:53:38;4.72;;;2.28;;
11247;SDS011;5681;53.316;13.950;2023-07-31T07:56:04;7.15;;;1.98;;
11247;SDS011;5681;53.316;13.950;2023-07-31T07:58:31;3.20;;;1.85;;
11247;SDS011;5681;53.316;13.950;2023-07-31T08:00:58;8.35;;;2.20;;
11247;SDS011;5681;53.316;13.950;2023-07-31T08:03:25;7.18;;;2.00;;
11247;SDS011;5681;53.316;13.950;2023-07-31T08:05:51;7.57;;;1.92;;
11247;SDS011;5681;53.316;13.950;2023-07-31T08:08:17;4.78;;;2.00;;
11247;SDS011;5681;53.316;13.950;2023-07-31T08:10:44;10.10;;;2.30;;
11247;SDS011;5681;53.316;13.950;2023-07-31T08:13:11;5.70;;;2.05;;
11247;SDS011;5681;53.316;13.950;2023-07-31T08:15:37;4.55;;;1.95;;
11247;SDS011;5681;53.316;13.950;2023-07-31T08:18:05;7.53;;;2.35;;
11247;SDS011;5681;53.316;13.950;2023-07-31T08:20:31;4.22;;;2.00;;
11247;SDS011;5681;53.316;13.950;2023-07-31T08:22:58;4.63;;;2.03;;
11247;SDS011;5681;53.316;13.950;2023-07-31T08:25:24;4.47;;;2.00;;
11247;SDS011;5681;53.316;13.950;2023-07-31T08:27:50;6.53;;;2.08;;
11247;SDS011;5681;53.316;13.950;2023-07-31T08:30:17;5.28;;;2.00;;
11247;SDS011;5681;53.316;13.950;2023-07-31T08:32:44;6.78;;;2.10;;
11247;SDS011;5681;53.316;13.950;2023-07-31T08:35:12;4.70;;;1.70;;
11247;SDS011;5681;53.316;13.950;2023-07-31T08:37:38;5.25;;;1.80;;
11247;SDS011;5681;53.316;13.950;2023-07-31T08:40:05;4.22;;;1.83;;
11247;SDS011;5681;53.316;13.950;2023-07-31T08:42:32;7.82;;;1.90;;
11247;SDS011;5681;53.316;13.950;2023-07-31T08:44:58;3.88;;;1.83;;
11247;SDS011;5681;53.316;13.950;2023-07-31T08:47:26;5.43;;;1.88;;
11247;SDS011;5681;53.316;13.950;2023-07-31T08:49:53;5.80;;;1.70;;
11247;SDS011;5681;53.316;13.950;2023-07-31T08:52:22;6.68;;;2.03;;
11247;SDS011;5681;53.316;13.950;2023-07-31T08:54:48;3.25;;;1.80;;
11247;SDS011;5681;53.316;13.950;2023-07-31T08:57:14;2.85;;;1.80;;
11247;SDS011;5681;53.316;13.950;2023-07-31T08:59:41;3.97;;;1.88;;
11247;SDS011;5681;53.316;13.950;2023-07-31T09:02:08;3.38;;;1.60;;
11247;SDS011;5681;53.316;13.950;2023-07-31T09:04:35;4.15;;;2.00;;
11247;SDS011;5681;53.316;13.950;2023-07-31T09:07:02;4.50;;;1.63;;
11247;SDS011;5681;53.316;13.950;2023-07-31T09:09:31;6.13;;;1.52;;
11247;SDS011;5681;53.316;13.950;2023-07-31T09:11:57;4.88;;;1.80;;
11247;SDS011;5681;53.316;13.950;2023-07-31T09:14:24;3.33;;;1.40;;
11247;SDS011;5681;53.316;13.950;2023-07-31T09:16:52;5.40;;;1.75;;
11247;SDS011;5681;53.316;13.950;2023-07-31T09:19:24;3.25;;;1.67;;
11247;SDS011;5681;53.316;13.950;2023-07-31T09:21:51;2.33;;;1.58;;
11247;SDS011;5681;53.316;13.950;2023-07-31T09:24:24;4.60;;;1.67;;
11247;SDS011;5681;53.316;13.950;2023-07-31T09:26:54;3.35;;;1.45;;
11247;SDS011;5681;53.316;13.950;2023-07-31T09:29:21;4.13;;;1.63;;
11247;SDS011;5681;53.316;13.950;2023-07-31T09:31:47;5.72;;;1.60;;
11247;SDS011;5681;53.316;13.950;2023-07-31T09:34:14;3.47;;;1.50;;
11247;SDS011;5681;53.316;13.950;2023-07-31T09:36:40;4.20;;;1.80;;
11247;SDS011;5681;53.316;13.950;2023-07-31T09:39:08;5.05;;;1.52;;
11247;SDS011;5681;53.316;13.950;2023-07-31T09:41:36;4.97;;;1.63;;
11247;SDS011;5681;53.316;13.950;2023-07-31T09:44:04;2.22;;;1.30;;
11247;SDS011;5681;53.316;13.950;2023-07-31T09:46:31;1.98;;;1.17;;
11247;SDS011;5681;53.316;13.950;2023-07-31T09:49:07;1.60;;;1.20;;
11247;SDS011;5681;53.316;13.950;2023-07-31T09:51:35;3.33;;;1.60;;
11247;SDS011;5681;53.316;13.950;2023-07-31T09:54:03;4.38;;;1.30;;
11247;SDS011;5681;53.316;13.950;2023-07-31T09:56:34;3.00;;;1.30;;
11247;SDS011;5681;53.316;13.950;2023-07-31T09:59:02;2.30;;;1.58;;
11247;SDS011;5681;53.316;13.950;2023-07-31T10:01:31;1.20;;;1.02;;
11247;SDS011;5681;53.316;13.950;2023-07-31T10:03:58;2.83;;;1.30;;
11247;SDS011;5681;53.316;13.950;2023-07-31T10:06:24;1.75;;;1.13;;
11247;SDS011;5681;53.316;13.950;2023-07-31T10:08:51;1.20;;;1.00;;
11247;SDS011;5681;53.316;13.950;2023-07-31T10:11:18;1.42;;;1.00;;
11247;SDS011;5681;53.316;13.950;2023-07-31T10:13:45;1.60;;;1.13;;
11247;SDS011;5681;53.316;13.950;2023-07-31T10:16:13;1.38;;;1.05;;
11247;SDS011;5681;53.316;13.950;2023-07-31T10:18:41;3.78;;;1.20;;
11247;SDS011;5681;53.316;13.950;2023-07-31T10:21:08;1.10;;;1.00;;
11247;SDS011;5681;53.316;13.950;2023-07-31T10:23:35;3.03;;;0.93;;
11247;SDS011;5681;53.316;13.950;2023-07-31T10:26:03;1.92;;;1.20;;
11247;SDS011;5681;53.316;13.950;2023-07-31T10:28:31;1.75;;;1.20;;
11247;SDS011;5681;53.316;13.950;2023-07-31T10:30:58;1.65;;;1.02;;
11247;SDS011;5681;53.316;13.950;2023-07-31T10:33:26;2.08;;;1.20;;
11247;SDS011;5681;53.316;13.950;2023-07-31T10:38:41;1.25;;;1.10;;
11247;SDS011;5681;53.316;13.950;2023-07-31T10:41:08;1.98;;;1.17;;
11247;SDS011;5681;53.316;13.950;2023-07-31T10:43:34;1.55;;;1.02;;
11247;SDS011;5681;53.316;13.950;2023-07-31T10:46:05;1.70;;;1.20;;
11247;SDS011;5681;53.316;13.950;2023-07-31T10:48:34;1.63;;;1.27;;
11247;SDS011;5681;53.316;13.950;2023-07-31T10:51:01;3.08;;;1.50;;
11247;SDS011;5681;53.316;13.950;2023-07-31T10:53:34;2.72;;;1.20;;
11247;SDS011;5681;53.316;13.950;2023-07-31T10:56:00;2.22;;;1.10;;
11247;SDS011;5681;53.316;13.950;2023-07-31T10:58:28;1.95;;;1.40;;
11247;SDS011;5681;53.316;13.950;2023-07-31T11:00:56;2.03;;;1.10;;
11247;SDS011;5681;53.316;13.950;2023-07-31T11:03:25;1.33;;;0.98;;
11247;SDS011;5681;53.316;13.950;2023-07-31T11:05:59;1.48;;;1.10;;
11247;SDS011;5681;53.316;13.950;2023-07-31T11:08:28;0.98;;;0.90;;
11247;SDS011;5681;53.316;13.950;2023-07-31T11:11:04;1.88;;;0.95;;
11247;SDS011;5681;53.316;13.950;2023-07-31T11:13:32;1.00;;;0.90;;
11247;SDS011;5681;53.316;13.950;2023-07-31T11:15:59;1.77;;;1.20;;
11247;SDS011;5681;53.316;13.950;2023-07-31T11:18:26;0.98;;;0.93;;
11247;SDS011;5681;53.316;13.950;2023-07-31T11:20:54;3.80;;;1.30;;
11247;SDS011;5681;53.316;13.950;2023-07-31T11:23:21;2.45;;;1.20;;
11247;SDS011;5681;53.316;13.950;2023-07-31T11:25:48;2.50;;;1.05;;
11247;SDS011;5681;53.316;13.950;2023-07-31T11:28:16;1.70;;;1.10;;
11247;SDS011;5681;53.316;13.950;2023-07-31T11:30:43;4.32;;;1.50;;
11247;SDS011;5681;53.316;13.950;2023-07-31T11:33:11;4.40;;;1.30;;
11247;SDS011;5681;53.316;13.950;2023-07-31T11:35:40;1.90;;;1.20;;
11247;SDS011;5681;53.316;13.950;2023-07-31T11:38:11;3.85;;;0.82;;
11247;SDS011;5681;53.316;13.950;2023-07-31T11:40:40;1.38;;;0.90;;
11247;SDS011;5681;53.316;13.950;2023-07-31T11:43:07;1.58;;;0.90;;
11247;SDS011;5681;53.316;13.950;2023-07-31T11:45:34;1.17;;;0.80;;
11247;SDS011;5681;53.316;13.950;2023-07-31T11:48:01;1.65;;;0.90;;
11247;SDS011;5681;53.316;13.950;2023-07-31T11:50:27;1.27;;;0.73;;
11247;SDS011;5681;53.316;13.950;2023-07-31T11:52:55;0.70;;;0.68;;
11247;SDS011;5681;53.316;13.950;2023-07-31T11:55:25;0.90;;;0.75;;
11247;SDS011;5681;53.316;13.950;2023-07-31T11:57:52;1.20;;;0.80;;
11247;SDS011;5681;53.316;13.950;2023-07-31T12:00:19;0.73;;;0.60;;
11247;SDS011;5681;53.316;13.950;2023-07-31T12:02:45;2.38;;;0.60;;
11247;SDS011;5681;53.316;13.950;2023-07-31T12:05:12;0.95;;;0.70;;
11247;SDS011;5681;53.316;13.950;2023-07-31T12:07:45;2.58;;;0.80;;
11247;SDS011;5681;53.316;13.950;2023-07-31T12:10:21;0.80;;;0.60;;
11247;SDS011;5681;53.316;13.950;2023-07-31T12:12:56;0.93;;;0.80;;
11247;SDS011;5681;53.316;13.950;2023-07-31T12:15:28;1.38;;;1.20;;
11247;SDS011;5681;53.316;13.950;2023-07-31T12:17:56;1.88;;;1.20;;
11247;SDS011;5681;53.316;13.950;2023-07-31T12:20:23;3.22;;;1.83;;
11247;SDS011;5681;53.316;13.950;2023-07-31T12:22:49;2.22;;;1.92;;
11247;SDS011;5681;53.316;13.950;2023-07-31T12:25:15;6.18;;;2.17;;
11247;SDS011;5681;53.316;13.950;2023-07-31T12:27:43;2.50;;;2.30;;
11247;SDS011;5681;53.316;13.950;2023-07-31T12:32:57;4.05;;;2.58;;
11247;SDS011;5681;53.316;13.950;2023-07-31T12:35:23;4.75;;;2.70;;
11247;SDS011;5681;53.316;13.950;2023-07-31T12:37:50;2.55;;;2.22;;
11247;SDS011;5681;53.316;13.950;2023-07-31T12:40:16;5.03;;;3.45;;
11247;SDS011;5681;53.316;13.950;2023-07-31T12:42:42;5.43;;;3.10;;
11247;SDS011;5681;53.316;13.950;2023-07-31T12:45:09;4.20;;;3.33;;
11247;SDS011;5681;53.316;13.950;2023-07-31T12:47:36;4.53;;;3.30;;
11247;SDS011;5681;53.316;13.950;2023-07-31T12:50:03;3.90;;;3.47;;
11247;SDS011;5681;53.316;13.950;2023-07-31T12:52:30;4.97;;;3.55;;
11247;SDS011;5681;53.316;13.950;2023-07-31T12:54:57;3.67;;;2.95;;
11247;SDS011;5681;53.316;13.950;2023-07-31T12:57:23;5.05;;;3.15;;
11247;SDS011;5681;53.316;13.950;2023-07-31T12:59:49;7.00;;;3.50;;
11247;SDS011;5681;53.316;13.950;2023-07-31T13:02:15;3.75;;;2.95;;
11247;SDS011;5681;53.316;13.950;2023-07-31T13:04:43;4.20;;;2.88;;
11247;SDS011;5681;53.316;13.950;2023-07-31T13:07:10;4.32;;;3.05;;
11247;SDS011;5681;53.316;13.950;2023-07-31T13:09:36;5.60;;;3.30;;
11247;SDS011;5681;53.316;13.950;2023-07-31T13:12:03;4.97;;;3.42;;
11247;SDS011;5681;53.316;13.950;2023-07-31T13:14:29;5.13;;;3.25;;
11247;SDS011;5681;53.316;13.950;2023-07-31T13:16:56;5.72;;;3.30;;
11247;SDS011;5681;53.316;13.950;2023-07-31T13:19:22;5.60;;;3.00;;
11247;SDS011;5681;53.316;13.950;2023-07-31T13:21:50;5.50;;;3.20;;
11247;SDS011;5681;53.316;13.950;2023-07-31T13:24:16;4.82;;;3.17;;
11247;SDS011;5681;53.316;13.950;2023-07-31T13:26:42;5.80;;;3.00;;
11247;SDS011;5681;53.316;13.950;2023-07-31T13:29:09;4.28;;;3.10;;
11247;SDS011;5681;53.316;13.950;2023-07-31T13:31:35;6.07;;;2.70;;
11247;SDS011;5681;53.316;13.950;2023-07-31T13:34:02;4.32;;;3.13;;
11247;SDS011;5681;53.316;13.950;2023-07-31T13:36:29;7.07;;;3.15;;
11247;SDS011;5681;53.316;13.950;2023-07-31T13:38:56;5.53;;;2.80;;
11247;SDS011;5681;53.316;13.950;2023-07-31T13:41:23;5.90;;;2.92;;
11247;SDS011;5681;53.316;13.950;2023-07-31T13:43:49;3.97;;;2.75;;
11247;SDS011;5681;53.316;13.950;2023-07-31T13:46:15;6.05;;;3.42;;
11247;SDS011;5681;53.316;13.950;2023-07-31T13:48:42;6.85;;;3.42;;
11247;SDS011;5681;53.316;13.950;2023-07-31T13:51:08;4.82;;;3.10;;
11247;SDS011;5681;53.316;13.950;2023-07-31T13:53:34;6.72;;;3.17;;
11247;SDS011;5681;53.316;13.950;2023-07-31T13:56:02;5.55;;;3.33;;
11247;SDS011;5681;53.316;13.950;2023-07-31T13:58:28;7.40;;;3.53;;
11247;SDS011;5681;53.316;13.950;2023-07-31T14:00:55;5.43;;;3.67;;
11247;SDS011;5681;53.316;13.950;2023-07-31T14:03:21;7.63;;;3.28;;
11247;SDS011;5681;53.316;13.950;2023-07-31T14:05:47;7.95;;;3.58;;
11247;SDS011;5681;53.316;13.950;2023-07-31T14:08:14;8.27;;;3.50;;
11247;SDS011;5681;53.316;13.950;2023-07-31T14:10:40;4.72;;;2.80;;
11247;SDS011;5681;53.316;13.950;2023-07-31T14:13:08;6.28;;;2.05;;
11247;SDS011;5681;53.316;13.950;2023-07-31T14:15:34;8.75;;;1.90;;
11247;SDS011;5681;53.316;13.950;2023-07-31T14:18:01;5.18;;;1.90;;
11247;SDS011;5681;53.316;13.950;2023-07-31T14:20:27;4.22;;;2.00;;
11247;SDS011;5681;53.316;13.950;2023-07-31T14:22:53;5.13;;;1.85;;
11247;SDS011;5681;53.316;13.950;2023-07-31T14:25:20;3.33;;;1.80;;
11247;SDS011;5681;53.316;13.950;2023-07-31T14:27:47;2.83;;;1.70;;
11247;SDS011;5681;53.316;13.950;2023-07-31T14:30:15;4.70;;;1.65;;
11247;SDS011;5681;53.316;13.950;2023-07-31T14:32:42;2.47;;;1.70;;
11247;SDS011;5681;53.316;13.950;2023-07-31T14:35:08;3.75;;;1.45;;
11247;SDS011;5681;53.316;13.950;2023-07-31T14:37:38;4.95;;;1.40;;
11247;SDS011;5681;53.316;13.950;2023-07-31T14:40:05;3.75;;;1.60;;
11247;SDS011;5681;53.316;13.950;2023-07-31T14:42:32;3.00;;;1.90;;
11247;SDS011;5681;53.316;13.950;2023-07-31T14:44:58;3.88;;;2.22;;
11247;SDS011;5681;53.316;13.950;2023-07-31T14:47:26;3.20;;;2.22;;
11247;SDS011;5681;53.316;13.950;2023-07-31T14:49:52;5.70;;;2.20;;
11247;SDS011;5681;53.316;13.950;2023-07-31T14:52:19;7.28;;;2.17;;